createdAt,value
2022-10-07T00:02:15.172Z,102497.00
2022-10-07T00:04:46.495Z,102497.00
2022-10-07T00:07:16.694Z,102496.81
2022-10-07T00:09:46.418Z,102495.75
2022-10-07T00:12:16.147Z,102492.13
2022-10-07T00:14:48.550Z,102485.03
2022-10-07T00:17:18.315Z,102489.31
2022-10-07T00:19:48.079Z,102484.03
2022-10-07T00:22:17.838Z,102479.59
2022-10-07T00:24:48.647Z,102473.41
2022-10-07T00:27:18.611Z,102475.97
2022-10-07T00:29:51.003Z,102473.25
2022-10-07T00:32:20.751Z,102468.72
2022-10-07T00:34:50.499Z,102459.81
2022-10-07T00:37:20.243Z,102464.19
2022-10-07T00:39:49.956Z,102462.38
2022-10-07T00:42:19.653Z,102461.47
2022-10-07T00:44:52.005Z,102463.28
2022-10-07T00:47:27.672Z,102449.09
2022-10-07T00:50:01.156Z,102452.56
2022-10-07T00:52:34.502Z,102454.13
2022-10-07T00:55:08.848Z,102449.69
2022-10-07T00:57:40.459Z,102448.78
2022-10-07T01:00:14.572Z,102443.50
2022-10-07T01:02:45.322Z,102438.25
2022-10-07T01:05:17.966Z,102435.59
2022-10-07T01:07:49.705Z,102433.78
2022-10-07T01:10:23.203Z,102429.34
2022-10-07T01:13:00.355Z,102431.13
2022-10-07T01:15:40.426Z,102418.84
2022-10-07T01:18:19.828Z,102414.41
2022-10-07T01:20:56.348Z,102415.31
2022-10-07T01:23:44.771Z,102409.88
2022-10-07T01:26:58.912Z,102411.63
2022-10-07T01:29:36.216Z,102402.72
2022-10-07T01:32:13.163Z,102399.97
2022-10-07T01:34:46.686Z,102393.81
2022-10-07T01:37:19.869Z,102393.75
2022-10-07T01:39:53.840Z,102391.84
2022-10-07T01:42:26.369Z,102383.84
2022-10-07T01:45:01.909Z,102373.22
2022-10-07T01:47:31.902Z,102368.78
2022-10-07T01:50:01.684Z,102366.88
2022-10-07T01:52:46.553Z,102358.09
2022-10-07T01:55:46.469Z,102351.78
2022-10-07T01:58:30.189Z,102350.88
2022-10-07T02:01:10.447Z,102347.25
2022-10-07T02:03:57.388Z,102342.72
2022-10-07T02:06:39.493Z,102345.47
2022-10-07T02:09:21.762Z,102344.47
2022-10-07T02:11:58.494Z,102325.03
2022-10-07T02:14:37.022Z,102330.94
2022-10-07T02:17:16.697Z,102330.03
2022-10-07T02:19:50.364Z,102333.53
2022-10-07T02:22:23.644Z,102325.50
2022-10-07T02:24:59.253Z,102314.97
2022-10-07T02:27:35.022Z,102311.34
2022-10-07T02:30:08.488Z,102310.53
2022-10-07T02:32:44.538Z,102307.72
2022-10-07T02:35:21.694Z,102308.56
2022-10-07T02:37:54.553Z,102304.94
2022-10-07T02:40:27.143Z,102298.66
2022-10-07T02:43:01.916Z,102295.22
2022-10-07T02:45:39.355Z,102294.22
2022-10-07T02:48:18.338Z,102292.44
2022-10-07T02:50:52.811Z,102280.00
2022-10-07T02:53:24.291Z,102278.28
2022-10-07T02:55:56.367Z,102280.91
2022-10-07T02:58:28.444Z,102276.53
2022-10-07T03:01:03.176Z,102274.00
2022-10-07T03:03:35.688Z,102274.06
2022-10-07T03:06:06.322Z,102269.63
2022-10-07T03:08:36.173Z,102261.72
2022-10-07T03:11:05.911Z,102258.19
2022-10-07T03:13:35.644Z,102255.44
2022-10-07T03:16:06.315Z,102252.81
2022-10-07T03:18:39.172Z,102255.34
2022-10-07T03:21:09.084Z,102262.38
2022-10-07T03:23:38.796Z,102257.84
2022-10-07T03:26:08.824Z,102252.56
2022-10-07T03:28:38.946Z,102247.31
2022-10-07T03:31:10.263Z,102248.94
2022-10-07T03:33:42.917Z,102245.41
2022-10-07T03:36:13.496Z,102237.44
2022-10-07T03:38:43.240Z,102239.09
2022-10-07T03:41:12.954Z,102239.00
2022-10-07T03:43:42.670Z,102226.66
2022-10-07T03:46:12.544Z,102236.28
2022-10-07T03:48:44.911Z,102233.63
2022-10-07T03:51:14.634Z,102234.56
2022-10-07T03:53:44.366Z,102235.38
2022-10-07T03:56:14.078Z,102231.84
2022-10-07T03:58:43.797Z,102222.03
2022-10-07T04:01:15.289Z,102226.41
2022-10-07T04:03:47.801Z,102226.31
2022-10-07T04:06:17.941Z,102217.38
2022-10-07T04:08:47.631Z,102211.09
2022-10-07T04:11:18.535Z,102208.38
2022-10-07T04:13:48.313Z,102208.38
2022-10-07T04:16:18.088Z,102199.53
2022-10-07T04:18:50.660Z,102195.97
2022-10-07T04:21:20.386Z,102194.91
2022-10-07T04:23:50.119Z,102201.06
2022-10-07T04:26:19.860Z,102201.00
2022-10-07T04:28:49.631Z,102193.91
2022-10-07T04:31:19.443Z,102190.28
2022-10-07T04:33:51.860Z,102189.38
2022-10-07T04:36:21.570Z,102198.19
2022-10-07T04:38:52.621Z,102200.03
2022-10-07T04:41:22.341Z,102198.13
2022-10-07T04:43:57.619Z,102195.41
2022-10-07T04:46:28.688Z,102191.78
2022-10-07T04:49:01.704Z,102183.81
2022-10-07T04:51:31.913Z,102182.06
2022-10-07T04:54:01.677Z,102179.34
2022-10-07T04:56:31.521Z,102171.44
2022-10-07T04:59:01.401Z,102169.66
2022-10-07T05:01:31.208Z,102164.38
2022-10-07T05:04:03.958Z,102160.75
2022-10-07T05:06:33.704Z,102162.41
2022-10-07T05:09:03.442Z,102170.25
2022-10-07T05:11:33.159Z,102161.41
2022-10-07T05:14:03.497Z,102160.53
2022-10-07T05:16:33.527Z,102157.81
2022-10-07T05:19:05.903Z,102151.72
2022-10-07T05:21:36.053Z,102149.97
2022-10-07T05:24:05.775Z,102150.88
2022-10-07T05:26:35.532Z,102156.16
2022-10-07T05:29:07.077Z,102154.44
2022-10-07T05:31:37.182Z,102149.19
2022-10-07T05:34:09.861Z,102155.34
2022-10-07T05:36:39.601Z,102157.09
2022-10-07T05:39:09.555Z,102150.97
2022-10-07T05:41:45.317Z,102150.88
2022-10-07T05:44:15.724Z,102149.19
2022-10-07T05:46:45.592Z,102144.81
2022-10-07T05:49:18.157Z,102144.88
2022-10-07T05:51:47.907Z,102134.34
2022-10-07T05:54:18.440Z,102137.91
2022-10-07T05:56:48.229Z,102135.19
2022-10-07T05:59:17.976Z,102123.75
2022-10-07T06:01:47.812Z,102136.91
2022-10-07T06:04:20.244Z,102136.06
2022-10-07T06:06:49.998Z,102129.06
2022-10-07T06:09:32.143Z,102131.72
2022-10-07T06:12:14.378Z,102136.22
2022-10-07T06:14:45.007Z,102140.59
2022-10-07T06:17:15.125Z,102138.97
2022-10-07T06:19:47.506Z,102142.59
2022-10-07T06:22:17.351Z,102137.41
2022-10-07T06:24:47.103Z,102146.25
2022-10-07T06:27:17.007Z,102141.09
2022-10-07T06:29:46.748Z,102140.34
2022-10-07T06:32:16.519Z,102147.50
2022-10-07T06:34:48.895Z,102145.03
2022-10-07T06:37:19.675Z,102144.28
2022-10-07T06:39:49.659Z,102141.72
2022-10-07T06:42:19.563Z,102141.88
2022-10-07T06:44:49.366Z,102133.97
2022-10-07T06:47:19.137Z,102146.56
2022-10-07T06:49:51.753Z,102145.06
2022-10-07T06:52:21.467Z,102152.16
2022-10-07T06:54:51.189Z,102145.28
2022-10-07T06:57:44.233Z,102149.00
2022-10-07T07:00:14.319Z,102142.16
2022-10-07T07:02:44.681Z,102145.81
2022-10-07T07:05:19.362Z,102149.78
2022-10-07T07:07:49.622Z,102138.47
2022-10-07T07:10:19.897Z,102138.53
2022-10-07T07:12:50.744Z,102143.22
2022-10-07T07:15:20.750Z,102137.25
2022-10-07T07:17:51.642Z,102131.25
2022-10-07T07:20:23.972Z,102129.75
2022-10-07T07:22:53.901Z,102130.97
2022-10-07T07:25:23.657Z,102120.50
2022-10-07T07:27:57.776Z,102126.88
2022-10-07T07:30:28.010Z,102119.16
2022-10-07T07:32:58.284Z,102121.16
2022-10-07T07:35:33.740Z,102124.03
2022-10-07T07:38:03.657Z,102130.34
2022-10-07T07:40:33.422Z,102116.47
2022-10-07T07:43:03.598Z,102111.47
2022-10-07T07:45:33.405Z,102114.34
2022-10-07T07:48:03.350Z,102114.59
2022-10-07T07:50:35.955Z,102096.44
2022-10-07T07:53:05.918Z,102092.28
2022-10-07T07:55:35.690Z,102096.91
2022-10-07T07:58:09.668Z,102099.84
2022-10-07T08:00:42.385Z,102096.72
2022-10-07T08:03:12.134Z,102098.72
2022-10-07T08:05:44.475Z,102098.16
2022-10-07T08:08:15.021Z,102103.78
2022-10-07T08:10:48.369Z,102098.03
2022-10-07T08:13:20.953Z,102106.28
2022-10-07T08:15:50.868Z,102103.06
2022-10-07T08:18:21.687Z,102090.19
2022-10-07T08:21:02.294Z,102087.91
2022-10-07T08:23:32.682Z,102086.34
2022-10-07T08:26:03.832Z,102078.69
2022-10-07T08:28:34.349Z,102075.44
2022-10-07T08:31:08.705Z,102077.44
2022-10-07T08:33:40.826Z,102076.78
2022-10-07T08:36:16.037Z,102086.78
2022-10-07T08:38:48.844Z,102079.16
2022-10-07T08:41:28.511Z,102073.28
2022-10-07T08:44:00.999Z,102068.28
2022-10-07T08:46:36.412Z,102062.50
2022-10-07T08:49:08.760Z,102070.03
2022-10-07T08:51:48.499Z,102064.25
2022-10-07T08:54:19.980Z,102066.31
2022-10-07T08:56:51.997Z,102055.09
2022-10-07T08:59:25.647Z,102052.66
2022-10-07T09:02:07.263Z,102049.34
2022-10-07T09:04:54.969Z,102050.50
2022-10-07T09:07:35.072Z,102041.00
2022-10-07T09:10:17.985Z,102046.47
2022-10-07T09:12:52.003Z,102044.00
2022-10-07T09:15:27.452Z,102039.78
2022-10-07T09:18:02.189Z,102042.50
2022-10-07T09:20:37.655Z,102039.13
2022-10-07T09:23:15.589Z,102030.41
2022-10-07T09:25:46.608Z,102033.16
2022-10-07T09:28:19.342Z,102031.66
2022-10-07T09:30:49.180Z,102027.41
2022-10-07T09:33:23.308Z,102016.09
2022-10-07T09:35:57.727Z,102021.53
2022-10-07T09:38:39.465Z,102012.00
2022-10-07T09:41:19.782Z,102009.47
2022-10-07T09:44:04.634Z,102009.59
2022-10-07T09:46:44.080Z,102010.69
2022-10-07T09:49:34.286Z,102001.25
2022-10-07T09:52:05.423Z,101989.97
2022-10-07T09:54:39.265Z,101994.59
2022-10-07T09:57:23.509Z,101990.34
2022-10-07T09:59:54.969Z,101987.88
2022-10-07T10:02:28.593Z,101981.69
2022-10-07T10:05:00.198Z,101974.66
2022-10-07T10:07:31.934Z,101964.97
2022-10-07T10:10:07.860Z,101957.19
2022-10-07T10:12:48.009Z,101974.22
2022-10-07T10:15:28.321Z,101955.72
2022-10-07T10:17:59.830Z,101967.22
2022-10-07T10:20:36.101Z,101954.09
2022-10-07T10:23:24.343Z,101964.78
2022-10-07T10:26:23.414Z,101955.16
2022-10-07T10:29:02.541Z,101957.00
2022-10-07T10:31:41.725Z,101959.72
2022-10-07T10:34:25.122Z,101954.53
2022-10-07T10:37:03.507Z,101950.22
2022-10-07T10:39:43.738Z,101951.31
2022-10-07T10:42:21.464Z,101958.59
2022-10-07T10:45:08.109Z,101956.91
2022-10-07T10:47:51.685Z,101949.06
2022-10-07T10:50:30.550Z,101943.75
2022-10-07T10:53:09.468Z,101945.59
2022-10-07T10:55:57.559Z,101930.69
2022-10-07T10:58:45.502Z,101931.66
2022-10-07T11:01:26.925Z,101922.94
2022-10-07T11:04:22.463Z,101923.91
2022-10-07T11:06:56.181Z,101918.72
2022-10-07T11:09:33.681Z,101910.06
2022-10-07T11:12:07.787Z,101918.19
2022-10-07T11:14:48.422Z,101920.06
2022-10-07T11:17:19.798Z,101914.00
2022-10-07T11:20:00.417Z,101909.69
2022-10-07T11:22:38.663Z,101903.59
2022-10-07T11:25:20.463Z,101898.28
2022-10-07T11:27:54.358Z,101892.16
2022-10-07T11:30:27.681Z,101895.75
2022-10-07T11:33:02.019Z,101885.13
2022-10-07T11:35:35.145Z,101877.16
2022-10-07T11:38:16.776Z,101877.22
2022-10-07T11:40:49.891Z,101869.31
2022-10-07T11:43:29.893Z,101871.09
2022-10-07T11:46:11.303Z,101857.84
2022-10-07T11:48:49.289Z,101865.88
2022-10-07T11:51:26.033Z,101857.97
2022-10-07T11:53:58.651Z,101858.09
2022-10-07T11:56:31.109Z,101859.09
2022-10-07T11:59:03.509Z,101853.97
2022-10-07T12:01:43.802Z,101839.94
2022-10-07T12:04:42.929Z,101848.00
2022-10-07T12:07:41.642Z,101837.41
2022-10-07T12:10:25.158Z,101850.69
2022-10-07T12:13:01.378Z,101835.66
2022-10-07T12:15:39.147Z,101832.09
2022-10-07T12:18:30.673Z,101829.50
2022-10-07T12:21:06.128Z,101829.56
2022-10-07T12:23:47.026Z,101817.19
2022-10-07T12:26:55.348Z,101813.66
2022-10-07T12:29:51.548Z,101810.94
2022-10-07T12:32:44.507Z,101795.91
2022-10-07T12:35:44.434Z,101798.53
2022-10-07T12:38:23.619Z,101797.66
2022-10-07T12:41:02.820Z,101795.91
2022-10-07T12:43:44.641Z,101790.59
2022-10-07T12:46:17.365Z,101780.00
2022-10-07T12:48:51.199Z,101778.31
2022-10-07T12:51:27.864Z,101769.47
2022-10-07T12:54:02.174Z,101773.91
2022-10-07T12:56:33.242Z,101770.38
2022-10-07T12:59:27.454Z,101771.16
2022-10-07T13:02:24.357Z,101776.41
2022-10-07T13:05:16.109Z,101771.09
2022-10-07T13:08:29.421Z,101756.97
2022-10-07T13:11:28.768Z,101755.19
2022-10-07T13:14:06.296Z,101763.19
2022-10-07T13:16:41.429Z,101754.31
2022-10-07T13:19:23.551Z,101747.19
2022-10-07T13:22:01.508Z,101748.88
2022-10-07T13:24:32.392Z,101745.28
2022-10-07T13:27:03.216Z,101725.75
2022-10-07T13:29:36.117Z,101738.09
2022-10-07T13:32:07.953Z,101738.00
2022-10-07T13:34:37.967Z,101729.13
2022-10-07T13:37:32.054Z,101720.22
2022-10-07T13:40:23.286Z,101736.16
2022-10-07T13:42:59.483Z,101724.50
2022-10-07T13:45:34.025Z,101713.88
2022-10-07T13:48:03.988Z,101721.91
2022-10-07T13:50:33.764Z,101714.00
2022-10-07T13:53:03.708Z,101705.16
2022-10-07T13:55:35.760Z,101716.75
2022-10-07T13:58:07.494Z,101715.00
2022-10-07T14:00:47.443Z,101719.50
2022-10-07T14:03:17.705Z,101708.88
2022-10-07T14:05:52.349Z,101712.50
2022-10-07T14:08:24.587Z,101699.16
2022-10-07T14:11:00.550Z,101691.13
2022-10-07T14:13:31.156Z,101698.22
2022-10-07T14:16:04.065Z,101694.72
2022-10-07T14:18:33.903Z,101696.50
2022-10-07T14:21:17.034Z,101688.47
2022-10-07T14:23:49.058Z,101680.50
2022-10-07T14:26:19.295Z,101677.78
2022-10-07T14:28:49.238Z,101672.53
2022-10-07T14:31:36.476Z,101675.19
2022-10-07T14:34:28.014Z,101674.22
2022-10-07T14:37:05.570Z,101667.06
2022-10-07T14:39:37.819Z,101667.91
2022-10-07T14:42:11.799Z,101667.91
2022-10-07T14:44:44.131Z,101663.44
2022-10-07T14:47:21.074Z,101667.84
2022-10-07T14:49:52.894Z,101664.25
2022-10-07T14:52:28.321Z,101655.31
2022-10-07T14:55:00.093Z,101652.63
2022-10-07T14:57:30.072Z,101650.81
2022-10-07T14:59:59.791Z,101649.03
2022-10-07T15:02:32.211Z,101647.28
2022-10-07T15:05:02.190Z,101649.88
2022-10-07T15:07:31.962Z,101646.31
2022-10-07T15:10:01.735Z,101642.69
2022-10-07T15:12:31.757Z,101648.00
2022-10-07T15:15:01.532Z,101632.88
2022-10-07T15:17:34.482Z,101631.91
2022-10-07T15:20:04.391Z,101624.78
2022-10-07T15:22:34.249Z,101631.84
2022-10-07T15:25:04.130Z,101626.59
2022-10-07T15:27:34.126Z,101635.44
2022-10-07T15:30:03.929Z,101610.66
2022-10-07T15:32:36.423Z,101619.47
2022-10-07T15:35:06.403Z,101607.00
2022-10-07T15:37:36.358Z,101606.13
2022-10-07T15:40:07.681Z,101617.50
2022-10-07T15:42:37.505Z,101605.94
2022-10-07T15:45:08.147Z,101602.34
2022-10-07T15:47:40.598Z,101598.75
2022-10-07T15:50:11.466Z,101592.50
2022-10-07T15:52:41.290Z,101589.84
2022-10-07T15:55:11.737Z,101587.13
2022-10-07T15:57:41.516Z,101584.47
2022-10-07T16:00:12.469Z,101593.31
2022-10-07T16:02:45.445Z,101582.72
2022-10-07T16:05:15.529Z,101579.16
2022-10-07T16:07:45.347Z,101592.41
2022-10-07T16:10:15.201Z,101588.00
2022-10-07T16:12:45.196Z,101588.00
2022-10-07T16:15:15.982Z,101586.22
2022-10-07T16:17:48.419Z,101586.22
2022-10-07T16:20:18.702Z,101587.97
2022-10-07T16:22:48.807Z,101595.84
2022-10-07T16:25:18.879Z,101581.66
2022-10-07T16:28:02.064Z,101587.84
2022-10-07T16:30:51.282Z,101581.66
2022-10-07T16:33:23.726Z,101589.63
2022-10-07T16:35:53.442Z,101591.41
2022-10-07T16:38:23.247Z,101586.97
2022-10-07T16:40:56.618Z,101578.97
2022-10-07T16:43:26.990Z,101586.00
2022-10-07T16:45:56.783Z,101580.66
2022-10-07T16:48:29.153Z,101574.44
2022-10-07T16:50:59.301Z,101574.41
2022-10-07T16:53:29.723Z,101569.06
2022-10-07T16:55:59.513Z,101569.00
2022-10-07T16:58:29.329Z,101561.00
2022-10-07T17:01:03.821Z,101562.81
2022-10-07T17:03:37.198Z,101560.94
2022-10-07T17:06:08.074Z,101560.84
2022-10-07T17:08:42.778Z,101562.56
2022-10-07T17:11:28.781Z,101558.13
2022-10-07T17:14:00.636Z,101549.22
2022-10-07T17:16:32.749Z,101556.28
2022-10-07T17:19:05.998Z,101554.53
2022-10-07T17:21:36.246Z,101548.28
2022-10-07T17:24:06.602Z,101547.34
2022-10-07T17:26:36.329Z,101546.41
2022-10-07T17:29:07.874Z,101546.41
2022-10-07T17:31:39.519Z,101541.97
2022-10-07T17:34:13.767Z,101539.31
2022-10-07T17:36:44.026Z,101535.78
2022-10-07T17:39:14.831Z,101537.50
2022-10-07T17:41:44.538Z,101539.31
2022-10-07T17:44:15.399Z,101535.72
2022-10-07T17:46:45.480Z,101535.72
2022-10-07T17:49:18.136Z,101533.91
2022-10-07T17:51:47.942Z,101541.81
2022-10-07T17:54:18.200Z,101546.22
2022-10-07T17:56:48.086Z,101538.16
2022-10-07T17:59:18.348Z,101539.91
2022-10-07T18:01:48.621Z,101536.31
2022-10-07T18:04:24.821Z,101543.41
2022-10-07T18:06:55.148Z,101540.66
2022-10-07T18:09:25.015Z,101536.16
2022-10-07T18:12:07.157Z,101530.81
2022-10-07T18:14:53.440Z,101528.94
2022-10-07T18:17:24.689Z,101521.72
2022-10-07T18:19:59.065Z,101527.03
2022-10-07T18:22:28.830Z,101528.75
2022-10-07T18:24:58.817Z,101526.03
2022-10-07T18:27:28.748Z,101520.63
2022-10-07T18:29:58.808Z,101530.34
2022-10-07T18:32:28.515Z,101531.22
2022-10-07T18:35:01.077Z,101516.16
2022-10-07T18:37:31.055Z,101519.63
2022-10-07T18:40:00.921Z,101520.44
2022-10-07T18:42:30.866Z,101515.09
2022-10-07T18:45:00.599Z,101504.44
2022-10-07T18:47:30.337Z,101509.66
2022-10-07T18:50:02.687Z,101505.22
2022-10-07T18:52:32.400Z,101512.22
2022-10-07T18:55:02.099Z,101498.00
2022-10-07T18:57:31.867Z,101502.44
2022-10-07T19:00:01.574Z,101492.66
2022-10-07T19:02:31.290Z,101488.22
2022-10-07T19:05:03.593Z,101492.59
2022-10-07T19:07:33.320Z,101484.56
2022-10-07T19:10:03.076Z,101488.06
2022-10-07T19:12:45.191Z,101484.47
2022-10-07T19:15:15.410Z,101476.44
2022-10-07T19:17:46.460Z,101470.19
2022-10-07T19:20:19.134Z,101473.72
2022-10-07T19:22:48.857Z,101471.91
2022-10-07T19:25:31.164Z,101474.53
2022-10-07T19:28:00.971Z,101470.97
2022-10-07T19:30:30.806Z,101463.91
2022-10-07T19:33:00.582Z,101465.59
2022-10-07T19:35:33.246Z,101461.19
2022-10-07T19:38:04.377Z,101455.81
2022-10-07T19:40:34.550Z,101462.88
2022-10-07T19:43:05.773Z,101445.09
2022-10-07T19:45:36.094Z,101453.03
2022-10-07T19:48:11.691Z,101445.03
2022-10-07T19:50:46.561Z,101438.84
2022-10-07T19:53:16.887Z,101436.13
2022-10-07T19:55:47.700Z,101435.25
2022-10-07T19:58:17.434Z,101426.38
2022-10-07T20:00:47.265Z,101428.06
2022-10-07T20:03:17.047Z,101418.28
2022-10-07T20:05:49.403Z,101428.00
2022-10-07T20:08:19.217Z,101420.94
2022-10-07T20:10:49.013Z,101410.22
2022-10-07T20:13:18.745Z,101404.03
2022-10-07T20:15:48.466Z,101394.28
2022-10-07T20:18:18.856Z,101380.97
2022-10-07T20:20:51.237Z,101392.41
2022-10-07T20:23:21.036Z,101387.97
2022-10-07T20:25:50.830Z,101388.84
2022-10-07T20:28:20.585Z,101384.38
2022-10-07T20:30:50.369Z,101386.09
2022-10-07T20:33:20.072Z,101385.19
2022-10-07T20:35:52.998Z,101384.25
2022-10-07T20:38:22.750Z,101392.22
2022-10-07T20:41:07.562Z,101383.31
2022-10-07T20:43:37.397Z,101373.59
2022-10-07T20:46:07.201Z,101373.59
2022-10-07T20:48:36.951Z,101366.47
2022-10-07T20:51:10.473Z,101372.63
2022-10-07T20:53:40.200Z,101373.47
2022-10-07T20:56:09.975Z,101372.59
2022-10-07T20:58:39.696Z,101361.13
2022-10-07T21:01:10.273Z,101367.28
2022-10-07T21:03:41.079Z,101369.88
2022-10-07T21:06:13.769Z,101362.81
2022-10-07T21:08:43.483Z,101372.47
2022-10-07T21:11:13.291Z,101365.41
2022-10-07T21:13:43.279Z,101354.75
2022-10-07T21:16:13.074Z,101352.03
2022-10-07T21:18:43.140Z,101354.69
2022-10-07T21:21:16.073Z,101352.94
2022-10-07T21:23:45.791Z,101351.19
2022-10-07T21:26:15.695Z,101354.75
2022-10-07T21:28:48.461Z,101347.63
2022-10-07T21:31:21.858Z,101340.63
2022-10-07T21:33:53.639Z,101332.69
2022-10-07T21:36:26.655Z,101327.44
2022-10-07T21:39:01.172Z,101319.56
2022-10-07T21:41:34.478Z,101328.41
2022-10-07T21:44:06.347Z,101313.44
2022-10-07T21:46:37.332Z,101318.78
2022-10-07T21:49:07.918Z,101307.38
2022-10-07T21:51:40.403Z,101312.69
2022-10-07T21:54:10.444Z,101312.69
2022-10-07T21:56:40.131Z,101305.56
2022-10-07T21:59:09.879Z,101310.84
2022-10-07T22:01:39.680Z,101301.97
2022-10-07T22:04:09.862Z,101297.59
2022-10-07T22:06:54.647Z,101291.41
2022-10-07T22:09:24.394Z,101288.75
2022-10-07T22:11:54.128Z,101291.41
2022-10-07T22:14:24.013Z,101294.03
2022-10-07T22:16:53.750Z,101294.97
2022-10-07T22:19:23.523Z,101298.50
2022-10-07T22:21:55.859Z,101302.91
2022-10-07T22:24:26.432Z,101299.38
2022-10-07T22:26:56.145Z,101294.97
2022-10-07T22:29:26.066Z,101301.97
2022-10-07T22:31:56.102Z,101301.97
2022-10-07T22:34:39.209Z,101305.50
2022-10-07T22:37:11.727Z,101315.22
2022-10-07T22:39:41.503Z,101315.13
2022-10-07T22:42:11.258Z,101319.50
2022-10-07T22:44:40.956Z,101325.69
2022-10-07T22:47:10.690Z,101336.28
2022-10-07T22:49:41.505Z,101327.44
2022-10-07T22:52:14.131Z,101330.03
2022-10-07T22:54:43.864Z,101325.50
2022-10-07T22:57:13.861Z,101337.72
2022-10-07T22:59:43.654Z,101337.56
2022-10-07T23:02:13.464Z,101337.47
2022-10-07T23:04:43.222Z,101339.06
2022-10-07T23:07:15.573Z,101339.88
2022-10-07T23:09:45.399Z,101330.94
2022-10-07T23:12:15.230Z,101348.53
2022-10-07T23:14:45.074Z,101342.22
2022-10-07T23:17:14.889Z,101350.16
2022-10-07T23:19:44.915Z,101344.78
2022-10-07T23:22:17.353Z,101338.63
2022-10-07T23:24:47.102Z,101344.88
2022-10-07T23:27:17.233Z,101336.94
2022-10-07T23:29:46.999Z,101338.69
2022-10-07T23:32:16.733Z,101332.50
2022-10-07T23:34:46.483Z,101333.34
2022-10-07T23:37:19.205Z,101330.69
2022-10-07T23:39:49.368Z,101334.25
2022-10-07T23:42:19.095Z,101332.50
2022-10-07T23:44:48.830Z,101322.75
2022-10-07T23:47:18.809Z,101329.84
2022-10-07T23:49:48.557Z,101329.84
2022-10-07T23:52:20.885Z,101323.69
2022-10-07T23:54:50.639Z,101332.50
2022-10-07T23:57:20.344Z,101321.06
2022-10-07T23:59:50.067Z,101329.94
